Terminal Aerodrome Forecast
Issued by NWS Huntsville, AL

Home | Current Version | Previous Version | Text Only | Print | Product List | Glossary On
Versions: 1 2 3 4 5 6 7 8 9 10 11 12 13 14 15 16 17 18 19 20 21 22 23 24 25 26 27 28 29 30 31 32 33 34
000
FTUS44 KHUN 231252 AAA
TAFHSV
TAF AMD
KHSV 231252Z 2313/2412 29006KT P6SM VCSH OVC020
      TEMPO 2313/2315 BKN008 BKN020
     FM231900 28008KT P6SM BKN030
     FM240000 24005KT P6SM FEW040
     FM240600 19005KT P6SM SKC=

USA.gov is the U.S. government's official web portal to all federal, state and local government web resources and services.